Time;durP1;ratioP1;P1;durP2;ratioP2;P2;SDS_P1;SDS_P2;PMS_P1;PMS_P2;Temp;Humidity;BMP_temperature;BMP_pressure;BME280_temperature;BME280_humidity;BME280_pressure;Samples;Min_cycle;Max_cycle;Signal;HPM_P1;HPM_P2
2022/05/05 00:00:56;;;;;;;10.25;3.28;;;;;;;9.75;42.18;98775.72;5092148;28;20550;-79
2022/05/05 00:03:22;;;;;;;5.50;3.67;;;;;;;9.65;42.58;98766.81;5091919;28;20079;-78
2022/05/05 00:05:48;;;;;;;10.13;3.80;;;;;;;9.65;42.34;98778.31;5058941;28;20055;-79
2022/05/05 00:08:14;;;;;;;7.68;4.22;;;;;;;9.66;42.09;98769.34;5058941;28;20048;-79
2022/05/05 00:16:12;;;;;;;4.00;3.20;;;;;;;9.60;42.12;98777.88;5075257;28;20070;-80
2022/05/05 00:18:38;;;;;;;6.15;3.13;;;;;;;9.58;42.00;98770.97;5062490;28;20040;-79
2022/05/05 00:21:04;;;;;;;6.20;3.47;;;;;;;9.65;42.35;98788.16;5079022;28;20467;-78
2022/05/05 00:23:30;;;;;;;5.25;3.20;;;;;;;9.68;41.81;98787.91;5079534;28;20155;-79
2022/05/05 00:25:56;;;;;;;5.20;3.08;;;;;;;9.67;42.19;98772.88;5096646;28;20044;-79
2022/05/05 00:28:22;;;;;;;5.60;2.90;;;;;;;9.66;42.11;98773.81;5063098;28;20079;-78
2022/05/05 00:30:48;;;;;;;6.85;3.28;;;;;;;9.61;41.96;98762.72;5062401;28;20097;-80
2022/05/05 00:33:14;;;;;;;4.40;2.97;;;;;;;9.69;41.72;98768.25;5078989;28;20070;-79
2022/05/05 00:35:40;;;;;;;6.90;3.22;;;;;;;9.68;42.08;98767.41;5079275;28;20062;-80
2022/05/05 00:38:06;;;;;;;5.53;3.30;;;;;;;9.65;42.65;98762.31;5078976;28;20097;-80
2022/05/05 00:40:31;;;;;;;8.02;4.13;;;;;;;9.63;42.66;98768.78;5079545;28;20044;-79
2022/05/05 00:42:59;;;;;;;5.65;3.40;;;;;;;9.50;43.23;98752.94;5062244;28;20406;-79
2022/05/05 00:45:25;;;;;;;8.50;4.10;;;;;;;9.56;43.42;98772.94;5062169;28;20071;-78
2022/05/05 00:47:51;;;;;;;11.18;3.72;;;;;;;9.62;42.83;98772.41;5078577;28;20418;-79
2022/05/05 00:50:20;;;;;;;14.98;4.18;;;;;;;9.65;43.22;98778.31;5096610;28;20047;-79
2022/05/05 00:52:46;;;;;;;6.20;3.90;;;;;;;9.64;43.38;98787.31;5096571;28;20079;-79
2022/05/05 00:55:12;;;;;;;13.65;4.38;;;;;;;9.68;43.22;98778.06;5079131;28;20086;-79
2022/05/05 00:57:39;;;;;;;10.15;4.35;;;;;;;9.68;43.51;98787.91;5079105;28;20168;-79
2022/05/05 01:00:05;;;;;;;15.02;4.38;;;;;;;9.70;43.74;98786.81;5078875;28;20044;-78
2022/05/05 01:02:35;;;;;;;5.88;4.05;;;;;;;9.72;43.43;98789.34;5096347;28;20131;-79
2022/05/05 01:05:01;;;;;;;8.38;4.00;;;;;;;9.67;44.25;98792.41;5078410;28;20047;-80
2022/05/05 01:07:29;;;;;;;10.98;4.70;;;;;;;9.63;44.01;98776.78;5079086;28;20070;-79
2022/05/05 01:09:55;;;;;;;10.57;4.78;;;;;;;9.74;43.86;98798.03;5096480;28;20078;-79
2022/05/05 01:12:23;;;;;;;7.55;4.47;;;;;;;9.75;43.98;98799.75;5094818;28;20040;-80
2022/05/05 01:14:49;;;;;;;9.00;4.60;;;;;;;9.78;44.01;98802.16;5095943;28;20040;-79
2022/05/05 01:17:15;;;;;;;7.97;4.65;;;;;;;9.67;44.34;98796.91;5061019;28;20067;-78
2022/05/05 01:19:41;;;;;;;19.42;5.68;;;;;;;9.76;44.52;98801.44;5060826;28;20478;-79
2022/05/05 01:22:07;;;;;;;8.45;4.10;;;;;;;9.84;43.92;98796.28;5078224;28;20051;-79
2022/05/05 01:30:03;;;;;;;8.75;4.65;;;;;;;9.83;44.61;98813.28;5078257;28;20051;-79
2022/05/05 01:32:36;;;;;;;16.80;5.18;;;;;;;9.76;44.82;98797.91;5096091;28;20105;-80
2022/05/05 01:35:02;;;;;;;7.85;4.63;;;;;;;9.85;44.84;98805.97;5061296;28;20040;-80
2022/05/05 01:37:29;;;;;;;9.13;5.43;;;;;;;9.91;44.60;98813.47;5077409;28;20530;-79
2022/05/05 01:39:55;;;;;;;10.98;5.35;;;;;;;9.86;44.92;98813.03;5095219;28;20056;-81
2022/05/05 01:42:21;;;;;;;18.73;5.30;;;;;;;9.88;45.11;98826.22;5093499;28;20040;-80
2022/05/05 01:44:47;;;;;;;9.27;5.05;;;;;;;9.81;45.34;98820.56;5060479;28;20403;-79
2022/05/05 01:47:14;;;;;;;11.90;4.72;;;;;;;9.86;44.94;98818.38;5077118;28;20398;-79
2022/05/05 01:49:39;;;;;;;11.43;4.78;;;;;;;9.93;45.12;98818.69;5095411;28;20134;-80
2022/05/05 01:52:09;;;;;;;12.48;5.07;;;;;;;10.00;44.69;98825.16;5094962;28;20070;-80
2022/05/05 01:54:35;;;;;;;9.93;4.55;;;;;;;10.05;44.66;98828.31;5077414;28;20050;-79
2022/05/05 01:57:01;;;;;;;7.63;4.55;;;;;;;10.09;44.35;98824.41;5077158;28;20138;-79
2022/05/05 01:59:26;;;;;;;15.68;4.72;;;;;;;10.16;44.29;98819.38;5077257;28;20036;-80
2022/05/05 02:01:52;;;;;;;11.55;4.40;;;;;;;10.19;44.36;98830.66;5060650;28;20039;-79
2022/05/05 02:04:18;;;;;;;11.18;4.30;;;;;;;10.28;44.29;98821.00;5094818;28;20055;-80
2022/05/05 02:06:44;;;;;;;9.27;4.40;;;;;;;10.32;44.07;98833.13;5094758;28;20093;-79
2022/05/05 02:09:10;;;;;;;7.05;4.85;;;;;;;10.31;44.04;98827.91;5060236;28;20137;-81
2022/05/05 02:11:41;;;;;;;12.85;4.53;;;;;;;10.36;44.28;98834.53;5076487;28;20039;-80
2022/05/05 02:14:08;;;;;;;11.52;4.20;;;;;;;10.41;43.52;98824.28;5076749;28;20036;-79
2022/05/05 02:16:33;;;;;;;10.68;4.45;;;;;;;10.43;43.72;98810.81;5076675;28;20043;-80
2022/05/05 02:18:59;;;;;;;12.43;4.15;;;;;;;10.60;43.57;98825.34;5076521;28;20032;-79
2022/05/05 02:21:25;;;;;;;13.57;4.75;;;;;;;10.63;43.47;98828.59;5093105;28;20457;-79
2022/05/05 02:23:51;;;;;;;20.70;5.00;;;;;;;10.53;43.60;98821.50;5075980;28;20559;-78
2022/05/05 02:26:17;;;;;;;11.60;4.47;;;;;;;10.52;43.20;98796.63;5060186;28;20051;-80
2022/05/05 02:28:43;;;;;;;9.32;5.35;;;;;;;10.61;43.29;98829.72;5076536;28;20040;-80
2022/05/05 02:31:08;;;;;;;12.10;4.35;;;;;;;10.59;43.13;98839.69;5059992;28;20048;-79
2022/05/05 02:33:34;;;;;;;16.85;4.15;;;;;;;10.78;42.83;98842.41;5076427;28;20415;-79
2022/05/05 02:38:47;;;;;;;12.70;4.22;;;;;;;11.00;42.56;98845.88;5076365;28;20046;-80
2022/05/05 02:41:16;;;;;;;16.17;4.75;;;;;;;11.12;42.22;98834.91;5092314;28;20123;-80
2022/05/05 02:43:42;;;;;;;8.73;3.88;;;;;;;11.24;42.15;98824.91;5059385;28;20051;-79
2022/05/05 02:46:07;;;;;;;8.65;3.90;;;;;;;11.35;41.75;98835.47;5092418;28;20090;-79
2022/05/05 02:48:33;;;;;;;12.23;3.83;;;;;;;11.34;41.77;98828.44;5092544;28;20048;-80
2022/05/05 02:50:59;;;;;;;6.47;3.53;;;;;;;11.40;41.57;98829.72;5092476;28;20101;-80
2022/05/05 02:56:11;;;;;;;9.85;3.40;;;;;;;11.59;41.41;98836.91;5075784;28;20097;-79
2022/05/05 02:58:37;;;;;;;10.50;2.78;;;;;;;11.67;40.72;98839.72;5093817;28;20441;-77
2022/05/05 03:01:03;;;;;;;16.38;2.80;;;;;;;11.64;40.56;98845.34;5075581;28;20051;-80
2022/05/05 03:03:29;;;;;;;7.97;2.67;;;;;;;11.77;40.23;98834.34;5058744;28;20036;-80
2022/05/05 03:05:55;;;;;;;10.60;2.40;;;;;;;11.79;40.30;98830.53;5075862;28;20044;-80
2022/05/05 03:08:21;;;;;;;5.18;2.30;;;;;;;11.85;40.34;98827.34;5093859;28;20050;-79
2022/05/05 03:10:47;;;;;;;13.80;2.53;;;;;;;11.90;40.41;98835.78;5058996;28;20115;-80
2022/05/05 03:13:12;;;;;;;3.92;2.17;;;;;;;11.93;40.18;98823.94;5075658;28;20085;-77
2022/05/05 03:15:38;;;;;;;10.63;2.47;;;;;;;12.09;39.92;98828.69;5093537;28;20036;-77
2022/05/05 03:18:04;;;;;;;15.73;2.75;;;;;;;12.16;40.11;98829.81;5059039;28;20514;-77
2022/05/05 03:20:30;;;;;;;4.43;2.20;;;;;;;12.21;39.48;98832.88;5058448;28;20044;-80
2022/05/05 03:22:56;;;;;;;14.40;2.78;;;;;;;12.35;39.37;98829.72;5074989;28;20134;-80
2022/05/05 03:25:22;;;;;;;9.55;2.55;;;;;;;12.48;39.58;98828.56;5075426;28;20174;-79
2022/05/05 03:27:49;;;;;;;27.80;2.90;;;;;;;12.63;39.27;98810.97;5075220;28;20130;-78
2022/05/05 03:30:15;;;;;;;11.02;2.45;;;;;;;12.79;39.00;98811.19;5075642;28;20127;-80
2022/05/05 03:32:42;;;;;;;6.85;2.30;;;;;;;12.80;38.87;98812.88;5075345;28;20554;-79
2022/05/05 03:35:08;;;;;;;6.97;2.22;;;;;;;12.95;38.35;98815.91;5093899;28;20036;-79
2022/05/05 03:37:35;;;;;;;3.63;2.75;;;;;;;12.99;38.38;98819.13;5075089;28;20052;-80
2022/05/05 03:40:01;;;;;;;14.65;3.22;;;;;;;13.14;38.54;98804.19;5075110;28;20062;-79
2022/05/05 03:42:26;;;;;;;13.35;2.20;;;;;;;13.07;38.40;98803.09;5093227;28;20395;-78
2022/05/05 03:44:52;;;;;;;9.93;2.60;;;;;;;13.26;38.26;98824.47;5075289;28;20075;-79
2022/05/05 03:47:19;;;;;;;3.20;2.38;;;;;;;13.36;38.17;98819.88;5077498;28;20040;-79
2022/05/05 03:49:45;;;;;;;5.80;2.45;;;;;;;13.49;37.98;98807.91;5083782;28;20036;-79
2022/05/05 03:52:11;;;;;;;12.20;2.83;;;;;;;13.53;37.93;98793.16;5092776;28;20047;-80
2022/05/05 03:54:37;;;;;;;14.25;3.17;;;;;;;13.77;38.07;98804.13;5058607;28;20085;-80
2022/05/05 03:57:03;;;;;;;11.95;2.50;;;;;;;13.91;37.73;98796.47;5093418;28;20040;-80
2022/05/05 03:59:29;;;;;;;17.05;3.95;;;;;;;14.01;37.35;98792.69;5074938;28;20040;-78
2022/05/05 04:01:54;;;;;;;14.60;2.30;;;;;;;14.20;37.00;98797.00;5074659;28;20055;-76
2022/05/05 04:04:20;;;;;;;9.05;2.30;;;;;;;14.28;37.15;98797.03;5074929;28;20101;-79
2022/05/05 04:06:46;;;;;;;11.55;2.65;;;;;;;14.38;36.39;98804.16;5058377;28;20048;-79
2022/05/05 04:09:12;;;;;;;9.20;2.00;;;;;;;14.45;36.31;98795.31;5091751;28;20044;-78
2022/05/05 04:11:39;;;;;;;10.30;2.58;;;;;;;14.70;36.04;98804.31;5074695;28;20036;-79
2022/05/05 04:14:04;;;;;;;5.55;2.13;;;;;;;14.77;35.57;98802.69;5092903;28;20076;-79
2022/05/05 04:16:31;;;;;;;7.32;2.95;;;;;;;14.82;35.68;98792.28;5075183;28;20079;-80
2022/05/05 04:19:03;;;;;;;8.05;2.10;;;;;;;15.01;35.55;98787.63;5092696;28;20104;-77
2022/05/05 04:21:30;;;;;;;10.57;2.72;;;;;;;15.21;34.78;98783.63;5074893;28;20044;-80
2022/05/05 04:23:56;;;;;;;12.85;2.42;;;;;;;15.38;34.74;98781.78;5074445;28;20060;-79
2022/05/05 04:26:23;;;;;;;8.30;2.22;;;;;;;15.45;35.09;98774.72;5074346;28;20043;-80
2022/05/05 04:28:50;;;;;;;9.07;2.50;;;;;;;15.72;35.10;98787.06;5074510;28;20414;-81
2022/05/05 04:31:18;;;;;;;8.55;1.95;;;;;;;15.89;34.53;98773.56;5074465;28;20044;-81
2022/05/05 04:33:45;;;;;;;7.22;1.95;;;;;;;15.88;34.00;98761.94;5079681;28;20051;-81
2022/05/05 04:36:12;;;;;;;7.40;2.20;;;;;;;16.05;33.79;98780.78;5095595;28;20054;-80
2022/05/05 04:38:38;;;;;;;7.95;2.28;;;;;;;16.06;33.75;98767.16;5095712;28;20462;-84
2022/05/05 04:41:05;;;;;;;11.82;2.78;;;;;;;16.29;33.74;98774.50;5095046;28;20124;-83
2022/05/05 04:43:31;;;;;;;8.38;1.77;;;;;;;16.33;33.38;98762.34;5094649;28;20055;-82
2022/05/05 04:45:57;;;;;;;3.90;1.80;;;;;;;16.61;33.35;98768.13;5095251;28;20040;-81
2022/05/05 04:48:23;;;;;;;3.78;1.50;;;;;;;16.70;31.65;98767.09;5112954;28;20039;-82
2022/05/05 04:50:49;;;;;;;10.90;1.90;;;;;;;16.92;30.95;98750.09;5078204;28;20071;-82
2022/05/05 04:53:15;;;;;;;6.03;1.77;;;;;;;17.03;30.58;98762.38;5112963;28;20081;-78
2022/05/05 04:55:41;;;;;;;12.25;1.60;;;;;;;17.33;30.80;98762.50;5112712;28;20092;-79
2022/05/05 04:58:07;;;;;;;14.10;1.98;;;;;;;17.42;30.74;98766.84;5094496;28;20089;-81
2022/05/05 05:00:33;;;;;;;18.90;1.88;;;;;;;17.48;29.89;98763.41;5112912;28;20047;-80
2022/05/05 05:02:59;;;;;;;9.55;2.25;;;;;;;17.64;29.91;98765.13;5095934;28;20097;-79
2022/05/05 05:05:25;;;;;;;10.82;2.03;;;;;;;17.82;29.50;98759.44;5097735;28;20040;-79
2022/05/05 05:07:51;;;;;;;17.40;2.30;;;;;;;18.01;28.99;98756.19;5088093;28;20067;-79
2022/05/05 05:10:17;;;;;;;14.68;1.70;;;;;;;18.33;29.00;98756.88;5098132;28;20122;-83
2022/05/05 05:12:42;;;;;;;9.13;1.67;;;;;;;18.68;28.17;98752.56;5098001;28;20040;-79
2022/05/05 05:15:09;;;;;;;13.40;2.03;;;;;;;18.71;28.28;98760.34;5116096;28;20036;-91
2022/05/05 05:17:35;;;;;;;13.07;1.70;;;;;;;18.78;28.07;98758.56;5081205;28;20486;-76
2022/05/05 05:20:01;;;;;;;10.05;1.52;;;;;;;18.98;28.33;98758.78;5097700;28;20051;-81
2022/05/05 05:22:27;;;;;;;13.13;2.00;;;;;;;18.95;27.84;98752.91;5098049;28;20079;-89
2022/05/05 05:24:53;;;;;;;21.00;1.98;;;;;;;19.00;27.54;98750.47;5081046;28;20051;-82
2022/05/05 05:27:19;;;;;;;19.05;2.03;;;;;;;19.05;27.21;98748.84;5115825;28;20084;-86
2022/05/05 05:29:45;;;;;;;18.23;2.40;;;;;;;19.11;26.90;98749.97;5095791;28;20480;-84
2022/05/05 05:32:11;;;;;;;15.30;2.65;;;;;;;19.24;26.88;98750.09;5081359;28;20048;-83
2022/05/05 05:34:36;;;;;;;25.27;2.10;;;;;;;18.98;26.63;98753.34;5095467;28;20172;-81
2022/05/05 05:37:03;;;;;;;21.15;1.90;;;;;;;19.07;26.53;98751.38;5090818;28;20126;-82
2022/05/05 05:39:30;;;;;;;18.00;2.00;;;;;;;19.13;26.74;98743.31;5081084;28;20044;-90
2022/05/05 05:41:56;;;;;;;33.78;2.58;;;;;;;19.05;25.84;98735.31;5096296;28;20047;-83
2022/05/05 05:44:22;;;;;;;20.98;2.42;;;;;;;19.15;26.51;98749.41;5076730;28;20498;-82
2022/05/05 05:46:48;;;;;;;13.00;1.80;;;;;;;19.21;26.01;98744.22;5051586;28;20058;-77
2022/05/05 05:49:14;;;;;;;25.98;1.90;;;;;;;19.24;25.91;98741.97;5095220;28;20048;-80
2022/05/05 05:51:41;;;;;;;37.42;2.53;;;;;;;19.30;25.97;98751.22;5076755;28;20088;-77
2022/05/05 05:54:07;;;;;;;30.48;2.58;;;;;;;19.23;25.52;98742.19;5095203;28;20072;-78
2022/05/05 05:56:33;;;;;;;22.20;2.00;;;;;;;19.28;25.77;98739.72;5060245;28;20059;-83
2022/05/05 05:59:01;;;;;;;8.18;1.83;;;;;;;19.34;25.66;98747.09;5060546;28;20154;-77
2022/05/05 06:04:13;;;;;;;39.10;2.70;;;;;;;19.09;25.26;98739.31;5115719;28;20078;-79
2022/05/05 06:06:41;;;;;;;43.55;3.35;;;;;;;19.00;25.75;98751.31;5095846;28;20125;-79
2022/05/05 06:09:08;;;;;;;15.85;1.95;;;;;;;19.03;25.77;98756.34;5079345;28;20069;-86
2022/05/05 06:11:35;;;;;;;16.55;2.35;;;;;;;19.01;26.19;98750.28;5115468;28;20094;-80
2022/05/05 06:14:04;;;;;;;16.10;2.25;;;;;;;19.04;25.89;98711.97;5113508;28;20092;-81
2022/05/05 06:16:30;;;;;;;7.07;1.55;;;;;;;19.14;25.58;98720.63;5079815;28;20066;-81
2022/05/05 06:18:56;;;;;;;22.15;2.17;;;;;;;19.16;25.86;98736.69;5115843;28;20490;-87
2022/05/05 06:21:22;;;;;;;7.78;1.83;;;;;;;18.87;25.76;98730.31;5113784;28;20047;-85
2022/05/05 06:23:48;;;;;;;17.00;1.48;;;;;;;19.11;26.37;98726.44;5092972;28;20048;-80
2022/05/05 06:26:14;;;;;;;6.18;1.73;;;;;;;19.16;25.48;98721.25;5109849;28;20527;-85
2022/05/05 06:28:40;;;;;;;45.28;4.20;;;;;;;19.14;25.09;98725.19;5070199;28;20052;-78
2022/05/05 06:31:06;;;;;;;14.32;1.92;;;;;;;19.25;24.59;98721.13;5074428;28;20407;-83
2022/05/05 06:33:32;;;;;;;38.13;3.00;;;;;;;19.57;24.90;98738.75;5072635;28;20071;-80
2022/05/05 06:35:58;;;;;;;8.13;1.65;;;;;;;19.57;24.26;98720.59;5073446;28;20052;-80
2022/05/05 06:38:24;;;;;;;46.50;2.78;;;;;;;19.71;24.23;98701.75;5055131;28;20045;-80
2022/05/05 06:40:51;;;;;;;9.30;1.55;;;;;;;19.99;23.96;98704.47;5072057;28;20157;-82
2022/05/05 06:43:18;;;;;;;9.55;1.88;;;;;;;20.04;24.09;98727.22;5071897;28;20546;-79
2022/05/05 06:45:45;;;;;;;34.78;2.60;;;;;;;20.05;24.23;98753.34;5072250;28;20044;-81
2022/05/05 06:48:11;;;;;;;20.52;1.92;;;;;;;20.03;23.66;98709.28;5071991;28;20048;-79
2022/05/05 06:50:36;;;;;;;19.17;2.00;;;;;;;19.97;23.86;98699.25;5088523;28;20055;-81
2022/05/05 06:53:03;;;;;;;13.10;2.05;;;;;;;20.24;24.05;98700.25;5040064;28;20107;-90
2022/05/05 06:55:29;;;;;;;31.10;3.25;;;;;;;20.34;24.07;98680.84;5040300;28;20499;-93
2022/05/05 06:57:55;;;;;;;24.45;3.30;;;;;;;20.24;23.56;98683.13;5077765;28;20059;-78
2022/05/05 07:00:21;;;;;;;16.77;2.20;;;;;;;20.14;23.67;98691.63;5093426;28;20194;-79
2022/05/05 07:02:47;;;;;;;9.75;1.80;;;;;;;20.02;23.58;98721.19;5085912;28;20037;-78
2022/05/05 07:05:27;;;;;;;12.55;1.67;;;;;;;19.59;23.81;98696.81;5064561;28;20130;-77
2022/05/05 07:07:53;;;;;;;8.85;1.70;;;;;;;19.37;24.49;98687.09;5082068;28;20035;-75
2022/05/05 07:13:04;;;;;;;13.70;2.10;;;;;;;19.47;24.22;98682.13;5080870;28;20556;-76
2022/05/05 07:15:30;;;;;;;16.98;2.10;;;;;;;19.81;23.60;98700.38;5079306;28;20039;-75
2022/05/05 07:17:56;;;;;;;29.95;3.20;;;;;;;19.69;23.42;98669.41;5074642;28;20499;-74
2022/05/05 07:20:23;;;;;;;20.65;1.83;;;;;;;19.77;22.93;98671.13;5090892;28;20051;-76
2022/05/05 07:22:51;;;;;;;68.22;5.00;;;;;;;20.01;22.33;98677.97;5074736;28;20047;-75
2022/05/05 07:25:18;;;;;;;31.02;2.58;;;;;;;19.88;21.57;98663.28;5112563;28;20051;-76
2022/05/05 07:27:44;;;;;;;19.17;2.45;;;;;;;19.97;22.25;98649.56;5113256;28;20051;-77
2022/05/05 07:30:11;;;;;;;14.95;2.05;;;;;;;19.99;22.28;98663.78;5078331;28;20051;-85
2022/05/05 07:32:37;;;;;;;34.72;2.97;;;;;;;20.03;22.25;98660.44;5094435;28;20040;-80
2022/05/05 07:35:03;;;;;;;40.95;2.30;;;;;;;20.01;21.83;98691.53;5112658;28;20548;-78
2022/05/05 07:37:29;;;;;;;31.95;3.00;;;;;;;19.96;20.72;98665.00;5112042;28;20051;-77
2022/05/05 07:39:56;;;;;;;32.40;3.55;;;;;;;20.08;20.81;98689.69;5033679;28;20455;-76
2022/05/05 07:42:22;;;;;;;30.77;2.40;;;;;;;20.12;20.95;98642.13;5034110;28;20067;-75
2022/05/05 07:44:49;;;;;;;6.35;1.75;;;;;;;20.28;21.08;98641.81;5030687;28;20061;-76
2022/05/05 07:47:15;;;;;;;25.98;3.17;;;;;;;20.57;21.23;98646.13;4997589;28;20046;-76
2022/05/05 07:49:42;;;;;;;36.35;2.78;;;;;;;20.68;20.70;98641.13;5010851;28;20051;-75
2022/05/05 07:52:08;;;;;;;14.27;2.55;;;;;;;20.92;20.77;98634.31;5013392;28;20512;-76
2022/05/05 07:54:34;;;;;;;8.32;1.42;;;;;;;20.83;20.49;98625.50;4997084;28;20046;-77
2022/05/05 07:57:01;;;;;;;21.55;2.80;;;;;;;20.71;20.63;98638.00;5014267;28;20582;-83
2022/05/05 07:59:27;;;;;;;18.90;2.00;;;;;;;20.69;20.40;98615.66;4997589;28;20057;-84
2022/05/05 08:01:53;;;;;;;40.55;3.25;;;;;;;20.72;20.58;98620.66;4981359;28;20095;-79
2022/05/05 08:04:19;;;;;;;108.93;5.60;;;;;;;20.82;20.64;98621.94;4996625;28;20042;-82
2022/05/05 08:06:45;;;;;;;39.40;3.30;;;;;;;20.91;20.26;98622.59;4998295;28;20045;-81
2022/05/05 08:09:11;;;;;;;23.48;2.42;;;;;;;20.92;20.69;98626.16;5013875;28;20099;-88
2022/05/05 08:11:37;;;;;;;9.52;2.65;;;;;;;20.70;20.96;98622.75;5044344;28;20117;-81
2022/05/05 08:14:04;;;;;;;9.20;2.25;;;;;;;20.65;21.04;98638.81;5053878;28;20443;-81
2022/05/05 08:16:30;;;;;;;41.10;2.50;;;;;;;21.02;20.61;98608.38;5071543;28;20087;-82
2022/05/05 08:18:56;;;;;;;19.85;1.83;;;;;;;20.90;20.38;98620.91;5071903;28;20040;-80
2022/05/05 08:21:22;;;;;;;5.78;1.70;;;;;;;20.94;20.28;98652.03;5074446;28;20048;-79
2022/05/05 08:23:48;;;;;;;20.13;2.47;;;;;;;20.97;20.43;98602.72;5057967;28;20192;-80
2022/05/05 08:28:58;;;;;;;43.65;2.90;;;;;;;21.60;20.14;98610.50;5090910;28;20051;-80
2022/05/05 08:31:24;;;;;;;30.52;2.97;;;;;;;21.72;19.73;98613.41;5074618;28;20392;-80
2022/05/05 08:33:50;;;;;;;40.33;3.08;;;;;;;21.70;19.66;98594.59;5074704;28;20067;-80
2022/05/05 08:36:16;;;;;;;7.18;1.92;;;;;;;21.79;19.09;98634.09;5074586;28;20043;-80
2022/05/05 08:38:42;;;;;;;13.15;1.80;;;;;;;21.58;18.80;98599.81;5077075;28;20109;-80
2022/05/05 08:41:11;;;;;;;27.92;3.20;;;;;;;21.73;18.82;98606.91;5096669;28;20484;-80
2022/05/05 08:43:37;;;;;;;;;;;;;;;21.53;18.77;98618.66;5045140;28;20043;-80
2022/05/05 08:46:03;;;;;;;16.65;1.60;;;;;;;21.56;19.13;98612.81;5078215;28;19919;-79
2022/05/05 08:48:31;;;;;;;14.02;1.92;;;;;;;21.39;19.51;98587.09;5061582;28;20043;-79
2022/05/05 08:51:00;;;;;;;39.05;3.50;;;;;;;21.54;19.36;98606.72;5044908;28;20075;-80
2022/05/05 08:53:37;;;;;;;20.08;2.33;;;;;;;21.72;18.58;98605.25;5096616;28;20032;-81
2022/05/05 08:56:04;;;;;;;16.73;2.53;;;;;;;22.00;18.42;98578.59;5095505;28;20040;-81
2022/05/05 08:58:31;;;;;;;66.85;5.40;;;;;;;22.16;18.06;98568.31;5044901;28;20052;-78
2022/05/05 09:00:58;;;;;;;19.75;2.10;;;;;;;22.20;18.43;98591.31;5095710;28;20101;-79
2022/05/05 09:03:24;;;;;;;36.63;3.38;;;;;;;22.32;18.65;98592.28;5077664;28;20487;-81
2022/05/05 09:05:52;;;;;;;23.40;3.00;;;;;;;21.88;18.88;98588.44;5081329;28;20181;-80
2022/05/05 09:08:27;;;;;;;13.35;2.63;;;;;;;22.00;18.58;98565.00;5081289;28;20058;-80
2022/05/05 09:10:58;;;;;;;40.97;3.25;;;;;;;22.32;18.73;98583.31;5065324;28;20147;-80
2022/05/05 09:13:30;;;;;;;40.08;3.97;;;;;;;22.14;18.08;98578.56;5064331;28;20039;-78
2022/05/05 09:15:56;;;;;;;16.30;1.70;;;;;;;22.18;18.50;98590.69;5116215;28;20359;-81
2022/05/05 09:18:26;;;;;;;20.50;2.58;;;;;;;21.99;18.38;98573.34;5097842;28;20035;-80
2022/05/05 09:20:53;;;;;;;21.65;2.10;;;;;;;22.11;18.40;98559.91;5098312;28;20150;-82
2022/05/05 09:26:39;;;;;;;30.35;2.38;;;;;;;22.57;17.43;98564.28;5081563;28;20039;-80
2022/05/05 09:29:19;;;;;;;26.88;3.03;;;;;;;22.49;17.52;98543.59;5064591;28;20047;-80
2022/05/05 09:31:45;;;;;;;35.65;4.38;;;;;;;22.77;17.64;98598.53;5116274;28;20032;-80
2022/05/05 09:34:20;;;;;;;25.80;3.47;;;;;;;22.71;17.38;98566.72;5080682;28;20607;-80
2022/05/05 09:36:47;;;;;;;20.75;2.03;;;;;;;22.60;18.17;98558.41;5097971;28;20046;-81
2022/05/05 09:39:13;;;;;;;23.95;2.60;;;;;;;22.21;18.55;98561.13;5077009;28;20139;-79
2022/05/05 09:41:46;;;;;;;36.50;2.40;;;;;;;22.19;18.56;98546.06;5076986;28;20145;-80
2022/05/05 09:44:20;;;;;;;21.70;2.40;;;;;;;22.76;17.96;98571.53;5060836;28;20586;-80
2022/05/05 09:46:47;;;;;;;26.05;2.50;;;;;;;23.05;16.99;98550.97;5060869;28;20051;-80
2022/05/05 09:49:18;;;;;;;29.98;2.90;;;;;;;23.03;16.69;98539.47;5060264;28;20059;-81
2022/05/05 09:51:46;;;;;;;51.70;3.65;;;;;;;23.06;17.64;98549.13;5095263;28;20044;-78
2022/05/05 09:59:50;;;;;;;15.82;1.90;;;;;;;22.96;17.74;98512.28;5060313;28;20130;-81
2022/05/05 10:05:10;;;;;;;13.48;2.03;;;;;;;23.03;17.88;98510.31;5059624;28;20043;-81
2022/05/05 10:07:41;;;;;;;22.98;1.90;;;;;;;23.70;17.19;98520.59;5076852;28;20575;-80
2022/05/05 10:10:08;;;;;;;16.20;1.90;;;;;;;24.04;17.25;98508.22;5076735;28;20048;-81
2022/05/05 10:12:37;;;;;;;15.27;1.95;;;;;;;23.61;17.22;98481.81;5094861;28;20064;-79
2022/05/05 10:15:04;;;;;;;13.52;1.58;;;;;;;23.25;17.35;98531.75;5059754;28;20040;-80
2022/05/05 10:17:34;;;;;;;17.80;1.90;;;;;;;22.24;18.23;98510.88;5059915;28;20135;-81
2022/05/05 10:20:01;;;;;;;25.95;2.33;;;;;;;21.86;18.73;98481.72;5059875;28;20067;-80
2022/05/05 10:23:10;;;;;;;23.83;2.10;;;;;;;21.80;19.25;98493.47;5076419;28;20046;-79
2022/05/05 10:25:39;;;;;;;62.47;3.40;;;;;;;22.11;19.26;98500.03;5004946;28;20051;-80
2022/05/05 10:28:42;;;;;;;16.13;1.58;;;;;;;22.25;19.44;98496.22;5093430;28;20134;-81
2022/05/05 10:31:12;;;;;;;19.85;2.05;;;;;;;22.54;18.98;98475.69;5071573;28;20040;-81
2022/05/05 10:33:58;;;;;;;23.80;1.90;;;;;;;23.25;18.17;98490.84;5059404;28;20414;-80
2022/05/05 10:36:25;;;;;;;29.33;2.55;;;;;;;23.20;17.61;98482.47;5059311;28;20233;-79
2022/05/05 10:38:52;;;;;;;30.27;2.97;;;;;;;22.91;18.06;98484.88;5075972;28;20056;-79
2022/05/05 10:41:34;;;;;;;20.63;1.65;;;;;;;22.92;18.22;98470.19;5058929;28;20075;-79
2022/05/05 10:44:20;;;;;;;17.77;1.77;;;;;;;22.87;17.93;98477.31;5075747;28;20039;-80
2022/05/05 10:47:02;;;;;;;14.63;1.73;;;;;;;22.43;18.66;98482.69;5075829;28;20039;-79
2022/05/05 10:49:37;;;;;;;7.40;1.60;;;;;;;22.32;18.33;98485.28;5076072;28;20079;-79
2022/05/05 10:52:09;;;;;;;6.97;1.70;;;;;;;22.28;18.31;98479.44;5042717;28;20466;-80
2022/05/05 10:54:37;;;;;;;26.75;1.70;;;;;;;21.67;19.05;98526.19;5042758;28;20051;-80
2022/05/05 10:57:39;;;;;;;18.13;1.63;;;;;;;21.25;19.65;98472.09;5075656;28;20047;-79
2022/05/05 11:00:18;;;;;;;8.50;1.40;;;;;;;21.05;19.95;98441.38;5033053;28;20048;-80
2022/05/05 11:02:58;;;;;;;29.05;2.47;;;;;;;21.12;19.52;98474.81;5059416;28;20449;-80
2022/05/05 11:05:32;;;;;;;12.43;1.73;;;;;;;20.77;20.18;98460.66;5059078;28;20035;-79
2022/05/05 11:08:10;;;;;;;17.23;2.08;;;;;;;20.69;20.36;98450.00;5058895;28;20071;-79
2022/05/05 11:13:45;;;;;;;25.03;1.87;;;;;;;20.80;20.33;98460.25;5072007;28;20048;-81
2022/05/05 11:22:30;;;;;;;11.30;1.52;;;;;;;20.17;20.98;98486.88;5069191;28;20072;-82
2022/05/05 11:24:56;;;;;;;59.13;3.67;;;;;;;19.84;21.56;98465.91;5097645;28;20052;-79
2022/05/05 11:27:24;;;;;;;14.35;2.08;;;;;;;19.72;21.58;98462.94;5095425;28;20128;-80
2022/05/05 11:29:52;;;;;;;25.70;2.03;;;;;;;19.59;21.72;98466.41;5078781;28;20105;-80
2022/05/05 11:32:20;;;;;;;15.80;1.88;;;;;;;19.56;21.40;98453.28;5095299;28;20161;-81
2022/05/05 11:34:48;;;;;;;14.85;1.50;;;;;;;19.60;21.96;98459.13;5078393;28;20497;-78
2022/05/05 11:37:14;;;;;;;8.63;1.42;;;;;;;19.64;21.58;98453.13;5095058;28;20054;-78
2022/05/05 11:39:41;;;;;;;18.15;1.73;;;;;;;19.47;21.43;98476.16;5095416;28;20051;-80
2022/05/05 11:42:11;;;;;;;23.90;2.45;;;;;;;19.15;22.64;98478.47;5113193;28;20042;-79
2022/05/05 11:44:44;;;;;;;20.27;2.15;;;;;;;18.92;26.17;98495.00;5113170;28;20039;-80
2022/05/05 11:47:11;;;;;;;79.60;4.93;;;;;;;18.54;30.90;98478.22;5078504;28;20122;-79
2022/05/05 11:49:37;;;;;;;27.85;3.28;;;;;;;18.23;33.97;98521.78;5095627;28;20444;-80
2022/05/05 11:52:04;;;;;;;47.72;3.15;;;;;;;17.71;36.12;98539.91;5078473;28;20097;-79
2022/05/05 11:54:35;;;;;;;23.70;2.10;;;;;;;17.08;38.04;98664.66;5112330;28;20093;-80
2022/05/05 11:57:01;;;;;;;12.43;1.63;;;;;;;16.52;39.28;98578.47;5112385;28;20047;-80
2022/05/05 12:02:22;;;;;;;22.52;3.00;;;;;;;15.86;40.77;98548.34;5078324;28;20494;-80
2022/05/05 12:04:50;;;;;;;15.85;2.42;;;;;;;15.81;41.14;98566.06;5112840;28;20078;-79
2022/05/05 12:07:23;;;;;;;24.05;2.22;;;;;;;15.88;40.64;98594.00;5061322;28;20051;-80
2022/05/05 12:09:52;;;;;;;12.13;2.33;;;;;;;15.34;41.60;98621.56;5109931;28;20048;-80
2022/05/05 12:12:18;;;;;;;;;;;;;;;15.10;42.48;98600.91;5065357;28;20135;-79
2022/05/05 12:14:47;;;;;;;15.15;2.30;;;;;;;14.95;42.31;98614.19;5078693;28;20035;-79
2022/05/05 12:17:17;;;;;;;16.93;3.23;;;;;;;14.67;42.74;98647.78;5062179;28;20044;-80
2022/05/05 12:19:53;;;;;;;15.30;2.40;;;;;;;14.19;43.74;98615.25;5082209;28;20051;-80